Narrabri West, New South Wales

8:51 AM AEDT on February 08, 2016 (GMT +1100)
Narrabri | | Change Station
CLOSE
Current Station
Airport
Location: Narrabri Airport,
Elevation: 787 ft
Nearby Weather Stations

Elev 787 ft 30.32 °S, 149.83 °E | Updated 51 minutes ago

Scattered Clouds
Scattered Clouds
70 °F
Feels Like 70 °F
N
6
Wind Variable Wind from SSE

Today
High -- | Low -- °F
--% Chance of Precip.
Yesterday
High -- | Low -- °F
Precip. -- in
Pressure 30.01 in
Visibility 6.2 miles
Clouds Scattered Clouds 4200 ft
Dew Point 55 °F
Humidity 60%
Rainfall 0.00 in
Snow Depth Not available.
6:34 AM 7:55 PM
Waning Crescent, 1% visible
METAR YNBR 072100Z AUTO 15005KT 9999 // SCT042 21/13 Q1016
Pressure 30.01 in
Visibility 6.2 miles
Clouds Scattered Clouds 4200 ft
Dew Point 55 °F
Humidity 60%
Rainfall 0.00 in
Snow Depth Not available.
6:34 AM 7:55 PM
Waning Crescent, 1% visible
METAR YNBR 072100Z AUTO 15005KT 9999 // SCT042 21/13 Q1016

10-Day Weather Forecast

Almanac

Astronomy

Feb. 08, 2016 Rise Set
Actual Time
Civil Twilight
Nautical Twilight
Astronomical Twilight
Moon
Length of Visible Light
Length of Day
Tomorrow will be .
, % of the Moon is Illuminated

Today's Extremes

Country Highs Country Lows

Community

WunderPhotos

Upload Photos

1,891,304 photos uploaded!

WunderBlog® & News

Nearby

Air Quality

  Air Quality AQ Index Pollutant
Not available.

Snow Depth

Station Depth Elevation

Earthquake Activity

City Distance Mag. Time & Date
Minimum magnitude displayed is 2.5.

Coastal Water Temperatures

Place Temperature

Stations

Nearby Weather Stations

Station Location Temp. Windchill Dew Point Humidity Wind Precip. Elev Updated Type